Terminal Aerodrome Forecast
Issued by NWS Caribou, ME

Home | Current Version | Previous Version | Text Only | Print | Product List | Glossary On
Versions: 1 2 3 4 5 6 7 8 9 10 11 12 13 14 15 16 17
898
FTUS41 KCAR 161127
TAFCAR
TAF
KCAR 161127Z 1612/1712 18005KT P6SM OVC070
     FM161600 21009KT P6SM OVC030
     FM161800 22011KT 6SM -SN OVC015
     FM162100 24011KT P6SM OVC025
     FM162300 26009KT P6SM BKN050=

USA.gov is the U.S. government's official web portal to all federal, state and local government web resources and services.